sensor_id;sensor_type;location;lat;lon;timestamp;temperature;humidity
11894;DHT22;6006;49.696;8.662;2023-05-10T00:00:39;13.30;99.90
11894;DHT22;6006;49.696;8.662;2023-05-10T00:03:06;13.20;99.90
11894;DHT22;6006;49.696;8.662;2023-05-10T00:05:34;13.20;99.90
11894;DHT22;6006;49.696;8.662;2023-05-10T00:08:01;13.20;99.90
11894;DHT22;6006;49.696;8.662;2023-05-10T00:10:28;13.20;99.90
11894;DHT22;6006;49.696;8.662;2023-05-10T00:12:55;13.10;99.90
11894;DHT22;6006;49.696;8.662;2023-05-10T00:15:22;13.20;99.90
11894;DHT22;6006;49.696;8.662;2023-05-10T00:17:49;13.10;99.90
11894;DHT22;6006;49.696;8.662;2023-05-10T00:20:15;13.10;99.90
11894;DHT22;6006;49.696;8.662;2023-05-10T00:22:43;13.00;99.90
11894;DHT22;6006;49.696;8.662;2023-05-10T00:25:10;13.10;99.90
11894;DHT22;6006;49.696;8.662;2023-05-10T00:27:37;13.10;99.90
11894;DHT22;6006;49.696;8.662;2023-05-10T00:30:05;13.10;99.90
11894;DHT22;6006;49.696;8.662;2023-05-10T00:32:32;13.10;99.90
11894;DHT22;6006;49.696;8.662;2023-05-10T00:34:59;13.00;99.90
11894;DHT22;6006;49.696;8.662;2023-05-10T00:37:26;13.10;99.90
11894;DHT22;6006;49.696;8.662;2023-05-10T00:39:54;13.10;99.90
11894;DHT22;6006;49.696;8.662;2023-05-10T00:42:21;13.10;99.90
11894;DHT22;6006;49.696;8.662;2023-05-10T00:44:48;13.00;99.90
11894;DHT22;6006;49.696;8.662;2023-05-10T00:47:15;13.10;99.90
11894;DHT22;6006;49.696;8.662;2023-05-10T00:49:43;13.10;99.90
11894;DHT22;6006;49.696;8.662;2023-05-10T00:52:10;13.10;99.90
11894;DHT22;6006;49.696;8.662;2023-05-10T00:54:37;13.00;99.90
11894;DHT22;6006;49.696;8.662;2023-05-10T00:57:05;13.00;99.90
11894;DHT22;6006;49.696;8.662;2023-05-10T00:59:32;13.00;99.90
11894;DHT22;6006;49.696;8.662;2023-05-10T01:01:59;13.00;99.90
11894;DHT22;6006;49.696;8.662;2023-05-10T01:04:26;13.00;99.90
11894;DHT22;6006;49.696;8.662;2023-05-10T01:06:54;12.90;99.90
11894;DHT22;6006;49.696;8.662;2023-05-10T01:09:21;13.00;99.90
11894;DHT22;6006;49.696;8.662;2023-05-10T01:11:49;13.00;99.90
11894;DHT22;6006;49.696;8.662;2023-05-10T01:14:18;13.00;99.90
11894;DHT22;6006;49.696;8.662;2023-05-10T01:16:47;13.00;99.90
11894;DHT22;6006;49.696;8.662;2023-05-10T01:19:20;13.00;99.90
11894;DHT22;6006;49.696;8.662;2023-05-10T01:21:51;12.90;99.90
11894;DHT22;6006;49.696;8.662;2023-05-10T01:24:53;13.00;99.90
11894;DHT22;6006;49.696;8.662;2023-05-10T01:27:54;12.90;99.90
11894;DHT22;6006;49.696;8.662;2023-05-10T01:30:50;12.90;99.90
11894;DHT22;6006;49.696;8.662;2023-05-10T01:33:25;13.00;99.90
11894;DHT22;6006;49.696;8.662;2023-05-10T01:35:58;13.00;99.90
11894;DHT22;6006;49.696;8.662;2023-05-10T01:38:39;12.90;99.90
11894;DHT22;6006;49.696;8.662;2023-05-10T01:41:14;13.00;99.90
11894;DHT22;6006;49.696;8.662;2023-05-10T01:43:50;13.00;99.90
11894;DHT22;6006;49.696;8.662;2023-05-10T01:46:27;13.00;99.90
11894;DHT22;6006;49.696;8.662;2023-05-10T01:48:57;13.00;99.90
11894;DHT22;6006;49.696;8.662;2023-05-10T01:51:29;12.90;99.90
11894;DHT22;6006;49.696;8.662;2023-05-10T01:54:00;12.90;99.90
11894;DHT22;6006;49.696;8.662;2023-05-10T01:56:30;12.90;99.90
11894;DHT22;6006;49.696;8.662;2023-05-10T01:59:00;12.90;99.90
11894;DHT22;6006;49.696;8.662;2023-05-10T02:01:30;12.90;99.90
11894;DHT22;6006;49.696;8.662;2023-05-10T02:03:59;12.90;99.90
11894;DHT22;6006;49.696;8.662;2023-05-10T02:06:27;12.90;99.90
11894;DHT22;6006;49.696;8.662;2023-05-10T02:08:55;12.90;99.90
11894;DHT22;6006;49.696;8.662;2023-05-10T02:11:23;12.90;99.90
11894;DHT22;6006;49.696;8.662;2023-05-10T02:13:51;12.90;99.90
11894;DHT22;6006;49.696;8.662;2023-05-10T02:16:22;12.90;99.90
11894;DHT22;6006;49.696;8.662;2023-05-10T02:18:51;12.90;99.90
11894;DHT22;6006;49.696;8.662;2023-05-10T02:21:20;12.80;99.90
11894;DHT22;6006;49.696;8.662;2023-05-10T02:23:49;12.80;99.90
11894;DHT22;6006;49.696;8.662;2023-05-10T02:26:18;12.80;99.90
11894;DHT22;6006;49.696;8.662;2023-05-10T02:28:47;12.80;99.90
11894;DHT22;6006;49.696;8.662;2023-05-10T02:31:16;12.80;99.90
11894;DHT22;6006;49.696;8.662;2023-05-10T02:33:43;12.80;99.90
11894;DHT22;6006;49.696;8.662;2023-05-10T02:36:11;12.80;99.90
11894;DHT22;6006;49.696;8.662;2023-05-10T02:38:40;12.80;99.90
11894;DHT22;6006;49.696;8.662;2023-05-10T02:41:08;12.70;99.90
11894;DHT22;6006;49.696;8.662;2023-05-10T02:43:37;12.70;99.90
11894;DHT22;6006;49.696;8.662;2023-05-10T02:46:06;12.70;99.90
11894;DHT22;6006;49.696;8.662;2023-05-10T02:48:33;12.70;99.90
11894;DHT22;6006;49.696;8.662;2023-05-10T02:51:03;12.80;99.90
11894;DHT22;6006;49.696;8.662;2023-05-10T02:53:32;12.70;99.90
11894;DHT22;6006;49.696;8.662;2023-05-10T02:56:05;12.70;99.90
11894;DHT22;6006;49.696;8.662;2023-05-10T02:58:36;12.70;99.90
11894;DHT22;6006;49.696;8.662;2023-05-10T03:01:03;12.70;99.90
11894;DHT22;6006;49.696;8.662;2023-05-10T03:03:30;12.70;99.90
11894;DHT22;6006;49.696;8.662;2023-05-10T03:05:57;12.80;99.90
11894;DHT22;6006;49.696;8.662;2023-05-10T03:08:24;12.70;99.90
11894;DHT22;6006;49.696;8.662;2023-05-10T03:11:02;12.70;99.90
11894;DHT22;6006;49.696;8.662;2023-05-10T03:13:39;12.70;99.90
11894;DHT22;6006;49.696;8.662;2023-05-10T03:16:14;12.70;99.90
11894;DHT22;6006;49.696;8.662;2023-05-10T03:18:44;12.70;99.90
11894;DHT22;6006;49.696;8.662;2023-05-10T03:21:18;12.70;99.90
11894;DHT22;6006;49.696;8.662;2023-05-10T03:23:51;12.70;99.90
11894;DHT22;6006;49.696;8.662;2023-05-10T03:26:22;12.60;99.90
11894;DHT22;6006;49.696;8.662;2023-05-10T03:28:51;12.70;99.90
11894;DHT22;6006;49.696;8.662;2023-05-10T03:31:19;12.70;99.90
11894;DHT22;6006;49.696;8.662;2023-05-10T03:33:46;12.70;99.90
11894;DHT22;6006;49.696;8.662;2023-05-10T03:36:14;12.70;99.90
11894;DHT22;6006;49.696;8.662;2023-05-10T03:38:40;12.70;99.90
11894;DHT22;6006;49.696;8.662;2023-05-10T03:41:07;12.70;99.90
11894;DHT22;6006;49.696;8.662;2023-05-10T03:43:35;12.70;99.90
11894;DHT22;6006;49.696;8.662;2023-05-10T03:46:02;12.70;99.90
11894;DHT22;6006;49.696;8.662;2023-05-10T03:48:30;12.60;99.90
11894;DHT22;6006;49.696;8.662;2023-05-10T03:50:58;12.70;99.90
11894;DHT22;6006;49.696;8.662;2023-05-10T03:53:25;12.70;99.90
11894;DHT22;6006;49.696;8.662;2023-05-10T03:55:52;12.70;99.90
11894;DHT22;6006;49.696;8.662;2023-05-10T03:58:19;12.80;99.90
11894;DHT22;6006;49.696;8.662;2023-05-10T04:00:47;12.70;99.90
11894;DHT22;6006;49.696;8.662;2023-05-10T04:03:14;12.70;99.90
11894;DHT22;6006;49.696;8.662;2023-05-10T04:05:40;12.80;99.90
11894;DHT22;6006;49.696;8.662;2023-05-10T04:08:07;12.80;99.90
11894;DHT22;6006;49.696;8.662;2023-05-10T04:10:34;12.80;99.90
11894;DHT22;6006;49.696;8.662;2023-05-10T04:13:01;12.70;99.90
11894;DHT22;6006;49.696;8.662;2023-05-10T04:15:28;12.80;99.90
11894;DHT22;6006;49.696;8.662;2023-05-10T04:17:56;12.80;99.90
11894;DHT22;6006;49.696;8.662;2023-05-10T04:20:23;12.80;99.90
11894;DHT22;6006;49.696;8.662;2023-05-10T04:22:49;12.80;99.90
11894;DHT22;6006;49.696;8.662;2023-05-10T04:25:16;12.80;99.90
11894;DHT22;6006;49.696;8.662;2023-05-10T04:27:43;12.80;99.90
11894;DHT22;6006;49.696;8.662;2023-05-10T04:30:11;12.80;99.90
11894;DHT22;6006;49.696;8.662;2023-05-10T04:32:37;12.80;99.90
11894;DHT22;6006;49.696;8.662;2023-05-10T04:35:06;12.70;99.90
11894;DHT22;6006;49.696;8.662;2023-05-10T04:37:34;12.80;99.90
11894;DHT22;6006;49.696;8.662;2023-05-10T04:40:02;12.80;99.90
11894;DHT22;6006;49.696;8.662;2023-05-10T04:42:29;12.80;99.90
11894;DHT22;6006;49.696;8.662;2023-05-10T04:44:56;12.80;99.90
11894;DHT22;6006;49.696;8.662;2023-05-10T04:47:23;12.80;99.90
11894;DHT22;6006;49.696;8.662;2023-05-10T04:49:49;12.80;99.90
11894;DHT22;6006;49.696;8.662;2023-05-10T04:52:18;12.80;99.90
11894;DHT22;6006;49.696;8.662;2023-05-10T04:54:44;12.80;99.90
11894;DHT22;6006;49.696;8.662;2023-05-10T04:57:11;12.80;99.90
11894;DHT22;6006;49.696;8.662;2023-05-10T04:59:38;12.90;99.90
11894;DHT22;6006;49.696;8.662;2023-05-10T05:02:05;12.80;99.90
11894;DHT22;6006;49.696;8.662;2023-05-10T05:04:32;12.80;99.90
11894;DHT22;6006;49.696;8.662;2023-05-10T05:06:59;12.80;99.90
11894;DHT22;6006;49.696;8.662;2023-05-10T05:09:27;12.80;99.90
11894;DHT22;6006;49.696;8.662;2023-05-10T05:11:54;12.80;99.90
11894;DHT22;6006;49.696;8.662;2023-05-10T05:14:20;12.80;99.90
11894;DHT22;6006;49.696;8.662;2023-05-10T05:16:47;12.90;99.90
11894;DHT22;6006;49.696;8.662;2023-05-10T05:19:14;12.80;99.90
11894;DHT22;6006;49.696;8.662;2023-05-10T05:21:42;12.80;99.90
11894;DHT22;6006;49.696;8.662;2023-05-10T05:24:08;12.80;99.90
11894;DHT22;6006;49.696;8.662;2023-05-10T05:26:38;12.80;99.90
11894;DHT22;6006;49.696;8.662;2023-05-10T05:29:04;12.90;99.90
11894;DHT22;6006;49.696;8.662;2023-05-10T05:31:31;12.90;99.90
11894;DHT22;6006;49.696;8.662;2023-05-10T05:33:58;12.90;99.90
11894;DHT22;6006;49.696;8.662;2023-05-10T05:36:25;13.00;99.90
11894;DHT22;6006;49.696;8.662;2023-05-10T05:38:52;13.00;99.90
11894;DHT22;6006;49.696;8.662;2023-05-10T05:41:19;13.20;99.90
11894;DHT22;6006;49.696;8.662;2023-05-10T05:43:48;13.20;99.90
11894;DHT22;6006;49.696;8.662;2023-05-10T05:46:15;13.20;99.90
11894;DHT22;6006;49.696;8.662;2023-05-10T05:48:41;13.30;99.90
11894;DHT22;6006;49.696;8.662;2023-05-10T05:51:08;13.30;99.90
11894;DHT22;6006;49.696;8.662;2023-05-10T05:53:36;13.20;99.90
11894;DHT22;6006;49.696;8.662;2023-05-10T05:56:03;13.30;99.90
11894;DHT22;6006;49.696;8.662;2023-05-10T05:58:30;13.40;99.90
11894;DHT22;6006;49.696;8.662;2023-05-10T06:00:58;13.40;99.90
11894;DHT22;6006;49.696;8.662;2023-05-10T06:03:25;13.30;99.90
11894;DHT22;6006;49.696;8.662;2023-05-10T06:05:51;13.40;99.90
11894;DHT22;6006;49.696;8.662;2023-05-10T06:08:18;13.40;99.90
11894;DHT22;6006;49.696;8.662;2023-05-10T06:10:45;13.30;99.90
11894;DHT22;6006;49.696;8.662;2023-05-10T06:13:12;13.40;99.90
11894;DHT22;6006;49.696;8.662;2023-05-10T06:15:39;13.40;99.90
11894;DHT22;6006;49.696;8.662;2023-05-10T06:18:07;13.50;99.90
11894;DHT22;6006;49.696;8.662;2023-05-10T06:20:34;13.60;99.90
11894;DHT22;6006;49.696;8.662;2023-05-10T06:23:01;13.60;99.90
11894;DHT22;6006;49.696;8.662;2023-05-10T06:25:29;13.70;99.90
11894;DHT22;6006;49.696;8.662;2023-05-10T06:27:56;13.80;99.90
11894;DHT22;6006;49.696;8.662;2023-05-10T06:30:24;14.00;99.90
11894;DHT22;6006;49.696;8.662;2023-05-10T06:32:53;13.80;99.90
11894;DHT22;6006;49.696;8.662;2023-05-10T06:35:22;13.70;99.90
11894;DHT22;6006;49.696;8.662;2023-05-10T06:37:49;13.60;99.90
11894;DHT22;6006;49.696;8.662;2023-05-10T06:40:17;13.60;99.90
11894;DHT22;6006;49.696;8.662;2023-05-10T06:42:44;13.70;99.90
11894;DHT22;6006;49.696;8.662;2023-05-10T06:45:12;13.80;99.90
11894;DHT22;6006;49.696;8.662;2023-05-10T06:47:39;13.90;99.90
11894;DHT22;6006;49.696;8.662;2023-05-10T06:50:07;14.10;99.90
11894;DHT22;6006;49.696;8.662;2023-05-10T06:52:35;14.40;99.90
11894;DHT22;6006;49.696;8.662;2023-05-10T06:55:02;14.60;99.90
11894;DHT22;6006;49.696;8.662;2023-05-10T06:57:30;14.90;99.90
11894;DHT22;6006;49.696;8.662;2023-05-10T06:59:57;15.10;99.90
11894;DHT22;6006;49.696;8.662;2023-05-10T07:02:23;15.00;99.90
11894;DHT22;6006;49.696;8.662;2023-05-10T07:04:50;15.00;99.90
11894;DHT22;6006;49.696;8.662;2023-05-10T07:07:17;14.90;99.90
11894;DHT22;6006;49.696;8.662;2023-05-10T07:09:46;14.70;99.90
11894;DHT22;6006;49.696;8.662;2023-05-10T07:12:13;14.70;99.90
11894;DHT22;6006;49.696;8.662;2023-05-10T07:14:40;14.60;99.90
11894;DHT22;6006;49.696;8.662;2023-05-10T07:17:06;14.60;99.90
11894;DHT22;6006;49.696;8.662;2023-05-10T07:19:33;14.70;99.90
11894;DHT22;6006;49.696;8.662;2023-05-10T07:22:00;15.00;99.90
11894;DHT22;6006;49.696;8.662;2023-05-10T07:24:27;15.00;99.90
11894;DHT22;6006;49.696;8.662;2023-05-10T07:26:56;15.00;99.90
11894;DHT22;6006;49.696;8.662;2023-05-10T07:29:22;14.70;99.90
11894;DHT22;6006;49.696;8.662;2023-05-10T07:31:49;14.90;99.90
11894;DHT22;6006;49.696;8.662;2023-05-10T07:34:16;14.90;99.90
11894;DHT22;6006;49.696;8.662;2023-05-10T07:36:43;14.90;99.90
11894;DHT22;6006;49.696;8.662;2023-05-10T07:39:10;15.20;99.90
11894;DHT22;6006;49.696;8.662;2023-05-10T07:41:37;15.10;99.90
11894;DHT22;6006;49.696;8.662;2023-05-10T07:44:06;15.30;99.90
11894;DHT22;6006;49.696;8.662;2023-05-10T07:46:33;15.80;99.90
11894;DHT22;6006;49.696;8.662;2023-05-10T07:49:00;15.60;99.90
11894;DHT22;6006;49.696;8.662;2023-05-10T07:51:27;15.70;99.90
11894;DHT22;6006;49.696;8.662;2023-05-10T07:53:54;15.90;99.90
11894;DHT22;6006;49.696;8.662;2023-05-10T07:56:23;15.90;99.90
11894;DHT22;6006;49.696;8.662;2023-05-10T07:58:50;15.70;99.90
11894;DHT22;6006;49.696;8.662;2023-05-10T08:01:18;15.50;99.90
11894;DHT22;6006;49.696;8.662;2023-05-10T08:03:45;15.50;99.90
11894;DHT22;6006;49.696;8.662;2023-05-10T08:06:12;15.70;99.90
11894;DHT22;6006;49.696;8.662;2023-05-10T08:08:39;15.50;99.90
11894;DHT22;6006;49.696;8.662;2023-05-10T08:11:06;15.50;99.90
11894;DHT22;6006;49.696;8.662;2023-05-10T08:13:33;15.60;99.90
11894;DHT22;6006;49.696;8.662;2023-05-10T08:16:00;15.60;99.90
11894;DHT22;6006;49.696;8.662;2023-05-10T08:18:28;15.60;99.90
11894;DHT22;6006;49.696;8.662;2023-05-10T08:20:55;15.70;99.90
11894;DHT22;6006;49.696;8.662;2023-05-10T08:23:22;15.70;99.90
11894;DHT22;6006;49.696;8.662;2023-05-10T08:25:48;15.60;99.90
11894;DHT22;6006;49.696;8.662;2023-05-10T08:28:15;15.50;99.90
11894;DHT22;6006;49.696;8.662;2023-05-10T08:30:42;15.40;99.90
11894;DHT22;6006;49.696;8.662;2023-05-10T08:33:09;15.10;99.90
11894;DHT22;6006;49.696;8.662;2023-05-10T08:35:37;15.20;99.90
11894;DHT22;6006;49.696;8.662;2023-05-10T08:38:04;15.20;99.90
11894;DHT22;6006;49.696;8.662;2023-05-10T08:40:31;15.40;99.90
11894;DHT22;6006;49.696;8.662;2023-05-10T08:43:04;15.40;99.90
11894;DHT22;6006;49.696;8.662;2023-05-10T08:45:33;15.80;99.90
11894;DHT22;6006;49.696;8.662;2023-05-10T08:48:01;15.90;99.90
11894;DHT22;6006;49.696;8.662;2023-05-10T08:50:29;16.50;99.90
11894;DHT22;6006;49.696;8.662;2023-05-10T08:53:00;16.90;8.60
11894;DHT22;6006;49.696;8.662;2023-05-10T08:55:30;17.30;1.00
11894;DHT22;6006;49.696;8.662;2023-05-10T08:57:59;17.80;99.90
11894;DHT22;6006;49.696;8.662;2023-05-10T09:00:26;17.80;1.00
11894;DHT22;6006;49.696;8.662;2023-05-10T09:02:53;18.50;99.90
11894;DHT22;6006;49.696;8.662;2023-05-10T09:05:20;18.70;1.00
11894;DHT22;6006;49.696;8.662;2023-05-10T09:07:47;18.50;99.90
11894;DHT22;6006;49.696;8.662;2023-05-10T09:10:16;17.80;99.90
11894;DHT22;6006;49.696;8.662;2023-05-10T09:12:43;17.50;1.00
11894;DHT22;6006;49.696;8.662;2023-05-10T09:15:15;17.10;1.00
11894;DHT22;6006;49.696;8.662;2023-05-10T09:17:44;16.80;99.90
11894;DHT22;6006;49.696;8.662;2023-05-10T09:20:12;16.30;99.90
11894;DHT22;6006;49.696;8.662;2023-05-10T09:22:39;16.40;99.90
11894;DHT22;6006;49.696;8.662;2023-05-10T09:25:07;16.40;1.00
11894;DHT22;6006;49.696;8.662;2023-05-10T09:27:36;16.50;1.00
11894;DHT22;6006;49.696;8.662;2023-05-10T09:30:04;16.50;1.00
11894;DHT22;6006;49.696;8.662;2023-05-10T09:32:39;16.80;99.90
11894;DHT22;6006;49.696;8.662;2023-05-10T09:35:07;17.40;1.00
11894;DHT22;6006;49.696;8.662;2023-05-10T09:37:34;17.40;99.90
11894;DHT22;6006;49.696;8.662;2023-05-10T09:40:04;17.60;1.00
11894;DHT22;6006;49.696;8.662;2023-05-10T09:42:31;17.30;99.90
11894;DHT22;6006;49.696;8.662;2023-05-10T09:45:02;17.60;99.90
11894;DHT22;6006;49.696;8.662;2023-05-10T09:47:31;17.80;1.00
11894;DHT22;6006;49.696;8.662;2023-05-10T09:49:58;17.30;1.00
11894;DHT22;6006;49.696;8.662;2023-05-10T09:52:28;17.10;99.90
11894;DHT22;6006;49.696;8.662;2023-05-10T09:54:55;17.20;99.90
11894;DHT22;6006;49.696;8.662;2023-05-10T09:57:24;17.00;99.90
11894;DHT22;6006;49.696;8.662;2023-05-10T09:59:50;17.10;1.00
11894;DHT22;6006;49.696;8.662;2023-05-10T10:02:21;17.30;99.90
11894;DHT22;6006;49.696;8.662;2023-05-10T10:04:55;17.40;99.90
11894;DHT22;6006;49.696;8.662;2023-05-10T10:07:23;17.70;1.00
11894;DHT22;6006;49.696;8.662;2023-05-10T10:09:51;17.70;99.90
11894;DHT22;6006;49.696;8.662;2023-05-10T10:12:18;17.60;1.00
11894;DHT22;6006;49.696;8.662;2023-05-10T10:14:46;17.80;1.00
11894;DHT22;6006;49.696;8.662;2023-05-10T10:17:15;18.00;99.90
11894;DHT22;6006;49.696;8.662;2023-05-10T10:19:43;17.30;1.00
11894;DHT22;6006;49.696;8.662;2023-05-10T10:22:11;17.30;99.90
11894;DHT22;6006;49.696;8.662;2023-05-10T10:24:38;17.10;1.00
11894;DHT22;6006;49.696;8.662;2023-05-10T10:27:16;17.20;99.90
11894;DHT22;6006;49.696;8.662;2023-05-10T10:29:52;17.20;1.00
11894;DHT22;6006;49.696;8.662;2023-05-10T10:32:27;17.10;99.90
11894;DHT22;6006;49.696;8.662;2023-05-10T10:34:58;16.90;1.00
11894;DHT22;6006;49.696;8.662;2023-05-10T10:37:43;17.20;99.90
11894;DHT22;6006;49.696;8.662;2023-05-10T10:40:23;17.50;99.90
11894;DHT22;6006;49.696;8.662;2023-05-10T10:42:51;17.70;99.90
11894;DHT22;6006;49.696;8.662;2023-05-10T10:45:20;18.00;1.00
11894;DHT22;6006;49.696;8.662;2023-05-10T10:47:47;18.50;1.00
11894;DHT22;6006;49.696;8.662;2023-05-10T10:50:16;18.50;99.90
11894;DHT22;6006;49.696;8.662;2023-05-10T10:52:43;18.10;56.30
11894;DHT22;6006;49.696;8.662;2023-05-10T10:55:12;17.40;1.00
11894;DHT22;6006;49.696;8.662;2023-05-10T10:57:44;17.20;99.90
11894;DHT22;6006;49.696;8.662;2023-05-10T11:00:19;17.20;1.00
11894;DHT22;6006;49.696;8.662;2023-05-10T11:02:47;17.40;1.00
11894;DHT22;6006;49.696;8.662;2023-05-10T11:05:46;17.70;99.90
11894;DHT22;6006;49.696;8.662;2023-05-10T11:08:18;17.90;3.20
11894;DHT22;6006;49.696;8.662;2023-05-10T11:11:06;18.40;99.90
11894;DHT22;6006;49.696;8.662;2023-05-10T11:13:40;18.10;99.90
11894;DHT22;6006;49.696;8.662;2023-05-10T11:16:18;18.30;1.00
11894;DHT22;6006;49.696;8.662;2023-05-10T11:19:06;18.10;1.00
11894;DHT22;6006;49.696;8.662;2023-05-10T11:21:45;18.50;1.00
11894;DHT22;6006;49.696;8.662;2023-05-10T11:24:13;17.70;99.90
11894;DHT22;6006;49.696;8.662;2023-05-10T11:26:41;17.40;1.00
11894;DHT22;6006;49.696;8.662;2023-05-10T11:29:08;17.50;1.00
11894;DHT22;6006;49.696;8.662;2023-05-10T11:31:35;17.60;1.00
11894;DHT22;6006;49.696;8.662;2023-05-10T11:34:03;17.50;11.20
11894;DHT22;6006;49.696;8.662;2023-05-10T11:36:33;17.50;98.60
11894;DHT22;6006;49.696;8.662;2023-05-10T11:39:02;17.30;99.90
11894;DHT22;6006;49.696;8.662;2023-05-10T11:41:30;17.50;99.90
11894;DHT22;6006;49.696;8.662;2023-05-10T11:43:58;17.60;67.80
11894;DHT22;6006;49.696;8.662;2023-05-10T11:46:26;17.60;99.90
11894;DHT22;6006;49.696;8.662;2023-05-10T11:48:57;17.70;1.00
11894;DHT22;6006;49.696;8.662;2023-05-10T11:51:26;17.70;1.00
11894;DHT22;6006;49.696;8.662;2023-05-10T11:53:54;18.10;99.90
11894;DHT22;6006;49.696;8.662;2023-05-10T11:56:22;18.20;6.30
11894;DHT22;6006;49.696;8.662;2023-05-10T11:58:55;18.40;1.00
11894;DHT22;6006;49.696;8.662;2023-05-10T12:01:22;18.40;1.00
11894;DHT22;6006;49.696;8.662;2023-05-10T12:03:50;18.00;1.00
11894;DHT22;6006;49.696;8.662;2023-05-10T12:06:17;17.80;1.00
11894;DHT22;6006;49.696;8.662;2023-05-10T12:08:45;17.60;99.90
11894;DHT22;6006;49.696;8.662;2023-05-10T12:11:13;17.80;1.00
11894;DHT22;6006;49.696;8.662;2023-05-10T12:13:43;17.80;99.90
11894;DHT22;6006;49.696;8.662;2023-05-10T12:16:16;17.80;1.00
11894;DHT22;6006;49.696;8.662;2023-05-10T12:18:44;17.90;1.00
11894;DHT22;6006;49.696;8.662;2023-05-10T12:21:11;18.00;1.00
11894;DHT22;6006;49.696;8.662;2023-05-10T12:23:39;18.60;1.00
11894;DHT22;6006;49.696;8.662;2023-05-10T12:26:06;19.30;1.00
11894;DHT22;6006;49.696;8.662;2023-05-10T12:28:33;19.10;1.00
11894;DHT22;6006;49.696;8.662;2023-05-10T12:31:02;19.00;1.00
11894;DHT22;6006;49.696;8.662;2023-05-10T12:33:36;18.90;1.00
11894;DHT22;6006;49.696;8.662;2023-05-10T12:36:05;18.90;1.00
11894;DHT22;6006;49.696;8.662;2023-05-10T12:38:33;19.20;99.90
11894;DHT22;6006;49.696;8.662;2023-05-10T12:41:02;19.40;1.00
11894;DHT22;6006;49.696;8.662;2023-05-10T12:43:30;19.00;1.00
11894;DHT22;6006;49.696;8.662;2023-05-10T12:45:57;18.70;1.00
11894;DHT22;6006;49.696;8.662;2023-05-10T12:48:25;19.00;1.00
11894;DHT22;6006;49.696;8.662;2023-05-10T12:50:54;19.50;1.00
11894;DHT22;6006;49.696;8.662;2023-05-10T12:53:21;19.50;1.00
11894;DHT22;6006;49.696;8.662;2023-05-10T12:55:47;19.50;1.00
11894;DHT22;6006;49.696;8.662;2023-05-10T12:58:14;19.20;1.00
11894;DHT22;6006;49.696;8.662;2023-05-10T13:00:41;18.40;1.00
11894;DHT22;6006;49.696;8.662;2023-05-10T13:03:09;18.20;1.00
11894;DHT22;6006;49.696;8.662;2023-05-10T13:05:37;18.20;1.00
11894;DHT22;6006;49.696;8.662;2023-05-10T13:08:05;18.00;99.90
11894;DHT22;6006;49.696;8.662;2023-05-10T13:10:32;17.70;99.90
11894;DHT22;6006;49.696;8.662;2023-05-10T13:12:59;17.50;99.90
11894;DHT22;6006;49.696;8.662;2023-05-10T13:15:26;17.30;99.90
11894;DHT22;6006;49.696;8.662;2023-05-10T13:17:53;17.10;1.00
11894;DHT22;6006;49.696;8.662;2023-05-10T13:20:20;17.20;99.90
11894;DHT22;6006;49.696;8.662;2023-05-10T13:22:48;17.30;99.90
11894;DHT22;6006;49.696;8.662;2023-05-10T13:25:15;17.20;1.00
11894;DHT22;6006;49.696;8.662;2023-05-10T13:27:42;17.50;99.90
11894;DHT22;6006;49.696;8.662;2023-05-10T13:30:09;17.60;99.90
11894;DHT22;6006;49.696;8.662;2023-05-10T13:32:37;17.60;1.00
11894;DHT22;6006;49.696;8.662;2023-05-10T13:35:05;17.60;1.00
11894;DHT22;6006;49.696;8.662;2023-05-10T13:37:32;17.70;1.00
11894;DHT22;6006;49.696;8.662;2023-05-10T13:40:02;18.30;61.80
11894;DHT22;6006;49.696;8.662;2023-05-10T13:42:29;19.00;1.00
11894;DHT22;6006;49.696;8.662;2023-05-10T13:44:57;19.10;1.00
11894;DHT22;6006;49.696;8.662;2023-05-10T13:47:24;18.20;1.00
11894;DHT22;6006;49.696;8.662;2023-05-10T13:49:50;17.70;1.00
11894;DHT22;6006;49.696;8.662;2023-05-10T13:52:17;17.60;1.00
11894;DHT22;6006;49.696;8.662;2023-05-10T13:54:44;17.10;1.00
11894;DHT22;6006;49.696;8.662;2023-05-10T13:57:12;17.00;1.00
11894;DHT22;6006;49.696;8.662;2023-05-10T13:59:42;16.90;1.00
11894;DHT22;6006;49.696;8.662;2023-05-10T14:02:08;16.90;99.90
11894;DHT22;6006;49.696;8.662;2023-05-10T14:04:36;17.00;1.00
11894;DHT22;6006;49.696;8.662;2023-05-10T14:07:03;17.20;99.90
11894;DHT22;6006;49.696;8.662;2023-05-10T14:09:29;17.20;99.90
11894;DHT22;6006;49.696;8.662;2023-05-10T14:11:56;17.40;99.90
11894;DHT22;6006;49.696;8.662;2023-05-10T14:14:25;17.50;1.00
11894;DHT22;6006;49.696;8.662;2023-05-10T14:16:53;17.30;99.90
11894;DHT22;6006;49.696;8.662;2023-05-10T14:19:20;17.60;1.00
11894;DHT22;6006;49.696;8.662;2023-05-10T14:21:47;17.80;1.00
11894;DHT22;6006;49.696;8.662;2023-05-10T14:24:14;17.80;9.90
11894;DHT22;6006;49.696;8.662;2023-05-10T14:26:40;17.60;25.80
11894;DHT22;6006;49.696;8.662;2023-05-10T14:29:07;17.50;6.70
11894;DHT22;6006;49.696;8.662;2023-05-10T14:31:35;17.60;1.00
11894;DHT22;6006;49.696;8.662;2023-05-10T14:34:02;17.70;1.00
11894;DHT22;6006;49.696;8.662;2023-05-10T14:36:29;17.50;1.00
11894;DHT22;6006;49.696;8.662;2023-05-10T14:38:56;17.50;21.60
11894;DHT22;6006;49.696;8.662;2023-05-10T14:41:23;17.70;1.00
11894;DHT22;6006;49.696;8.662;2023-05-10T14:43:50;17.90;1.00
11894;DHT22;6006;49.696;8.662;2023-05-10T14:46:17;17.90;1.00
11894;DHT22;6006;49.696;8.662;2023-05-10T14:48:45;17.70;1.00
11894;DHT22;6006;49.696;8.662;2023-05-10T14:51:12;17.40;1.00
11894;DHT22;6006;49.696;8.662;2023-05-10T14:53:39;17.30;21.00
11894;DHT22;6006;49.696;8.662;2023-05-10T14:56:06;17.20;99.90
11894;DHT22;6006;49.696;8.662;2023-05-10T14:58:33;17.20;1.00
11894;DHT22;6006;49.696;8.662;2023-05-10T15:01:00;17.60;1.00
11894;DHT22;6006;49.696;8.662;2023-05-10T15:03:27;17.80;1.00
11894;DHT22;6006;49.696;8.662;2023-05-10T15:05:55;18.10;1.00
11894;DHT22;6006;49.696;8.662;2023-05-10T15:08:23;18.10;1.00
11894;DHT22;6006;49.696;8.662;2023-05-10T15:10:50;18.20;1.00
11894;DHT22;6006;49.696;8.662;2023-05-10T15:13:17;18.20;1.00
11894;DHT22;6006;49.696;8.662;2023-05-10T15:15:44;18.20;1.00
11894;DHT22;6006;49.696;8.662;2023-05-10T15:18:11;18.30;1.00
11894;DHT22;6006;49.696;8.662;2023-05-10T15:20:38;18.30;1.00
11894;DHT22;6006;49.696;8.662;2023-05-10T15:23:06;18.30;1.00
11894;DHT22;6006;49.696;8.662;2023-05-10T15:25:33;18.70;1.00
11894;DHT22;6006;49.696;8.662;2023-05-10T15:28:03;18.60;1.00
11894;DHT22;6006;49.696;8.662;2023-05-10T15:30:30;18.40;99.90
11894;DHT22;6006;49.696;8.662;2023-05-10T15:32:57;18.40;1.00
11894;DHT22;6006;49.696;8.662;2023-05-10T15:35:23;18.20;1.00
11894;DHT22;6006;49.696;8.662;2023-05-10T15:37:52;18.50;1.00
11894;DHT22;6006;49.696;8.662;2023-05-10T15:40:20;18.20;1.00
11894;DHT22;6006;49.696;8.662;2023-05-10T15:42:47;18.30;99.90
11894;DHT22;6006;49.696;8.662;2023-05-10T15:45:14;18.00;1.00
11894;DHT22;6006;49.696;8.662;2023-05-10T15:47:41;18.20;1.00
11894;DHT22;6006;49.696;8.662;2023-05-10T15:50:10;18.40;1.00
11894;DHT22;6006;49.696;8.662;2023-05-10T15:52:36;18.30;99.90
11894;DHT22;6006;49.696;8.662;2023-05-10T15:55:04;18.00;99.90
11894;DHT22;6006;49.696;8.662;2023-05-10T15:57:38;17.70;1.00